CheckWX is a tool to help pilots better visualize weather data.  It is not intended as a substitute for an official pre-flight weather briefing.

23:34:38 UTC

KBAM METAR
Battle Mountain Airport
Battle Mountain, Nevada, USA
Current

20 mins ago

KBAM 242315Z AUTO 01008KT 10SM CLR 22/M05 A3010 RMK AO1
Observed
May-24 @ 23:15 UTC
Wind
  • 010° at 8 KTS
Visibility
Flight Rules
VFR
Cloud Levels
  • Clear skies
Temperature
22°C / 72°F
Dewpoint
-5°C / 23°F
Humidity
16%
Altimeter
30.1" Hg
Pressure
1019.32 hPa
Previous

40 mins ago

KBAM 242255Z AUTO 01012G18KT 10SM CLR 22/M05 A3010 RMK AO1
Observed
May-24 @ 22:55 UTC
Wind
  • 010° at 12 KTS
  • Gusting to 18 KTS
Visibility
Flight Rules
VFR
Cloud Levels
  • Clear skies
Temperature
22°C / 72°F
Dewpoint
-5°C / 23°F
Humidity
16%
Altimeter
30.1" Hg
Pressure
1019.32 hPa
Previous

60 mins ago

KBAM 242235Z AUTO 01009G16KT 10SM CLR 22/M05 A3011 RMK AO1
Observed
May-24 @ 22:35 UTC
Wind
  • 010° at 9 KTS
  • Gusting to 16 KTS
Visibility
Flight Rules
VFR
Cloud Levels
  • Clear skies
Temperature
22°C / 72°F
Dewpoint
-5°C / 23°F
Humidity
16%
Altimeter
30.11" Hg
Pressure
1019.62 hPa